Time;durP1;ratioP1;P1;durP2;ratioP2;P2;SDS_P1;SDS_P2;PMS_P1;PMS_P2;Temp;Humidity;BMP_temperature;BMP_pressure;BME280_temperature;BME280_humidity;BME280_pressure;Samples;Min_cycle;Max_cycle;Signal;HPM_P1;HPM_P2
2023/06/01 00:01:01;;;;;;;4.05;2.65;;;15.10;91.70;;;;;;5033790;28;20210;-61
2023/06/01 00:03:29;;;;;;;4.68;2.58;;;15.00;91.60;;;;;;5034497;28;20213;-60
2023/06/01 00:05:56;;;;;;;4.78;2.33;;;15.00;91.50;;;;;;5034464;28;20293;-61
2023/06/01 00:08:24;;;;;;;5.27;2.60;;;15.10;91.50;;;;;;5033973;28;20213;-60
2023/06/01 00:10:51;;;;;;;3.70;2.57;;;15.00;91.50;;;;;;5033867;28;20234;-61
2023/06/01 00:13:17;;;;;;;3.70;2.43;;;15.00;92.70;;;;;;5033839;28;20675;-60
2023/06/01 00:15:44;;;;;;;5.10;2.60;;;15.00;92.30;;;;;;5033897;28;20218;-61
2023/06/01 00:18:12;;;;;;;2.90;1.90;;;15.10;92.20;;;;;;5033991;28;20297;-61
2023/06/01 00:20:39;;;;;;;5.28;2.70;;;15.10;91.90;;;;;;5033902;28;20314;-60
2023/06/01 00:23:06;;;;;;;4.32;2.47;;;15.20;91.70;;;;;;5034274;28;20222;-60
2023/06/01 00:25:34;;;;;;;8.25;2.70;;;15.20;92.50;;;;;;5034013;28;20206;-61
2023/06/01 00:28:02;;;;;;;4.53;2.70;;;15.10;93.70;;;;;;5033839;28;20213;-60
2023/06/01 00:30:28;;;;;;;3.87;2.40;;;15.20;93.70;;;;;;5034119;28;20702;-60
2023/06/01 00:32:55;;;;;;;5.10;2.57;;;15.20;93.60;;;;;;5034711;28;20226;-60
2023/06/01 00:35:22;;;;;;;4.80;2.80;;;15.20;93.60;;;;;;5034660;28;20221;-60
2023/06/01 00:37:49;;;;;;;5.87;2.53;;;15.20;93.80;;;;;;5033537;28;20614;-61
2023/06/01 00:40:16;;;;;;;5.63;3.00;;;15.10;93.90;;;;;;5033113;28;20213;-60
2023/06/01 00:42:44;;;;;;;5.30;2.93;;;15.10;94.00;;;;;;5033298;28;20313;-60
2023/06/01 00:45:11;;;;;;;4.32;2.80;;;15.10;93.90;;;;;;5033694;28;20297;-61
2023/06/01 00:47:41;;;;;;;4.57;2.63;;;15.00;93.90;;;;;;5033573;28;20206;-61
2023/06/01 00:50:09;;;;;;;5.13;2.80;;;15.10;93.90;;;;;;5034056;28;20699;-60
2023/06/01 00:52:37;;;;;;;4.60;2.90;;;15.00;94.00;;;;;;5033401;28;20249;-60
2023/06/01 00:55:05;;;;;;;6.40;2.92;;;15.00;94.10;;;;;;5033179;28;20206;-60
2023/06/01 00:57:33;;;;;;;3.37;2.87;;;15.00;94.20;;;;;;5032584;28;20245;-60
2023/06/01 01:00:08;;;;;;;5.20;3.27;;;15.00;94.30;;;;;;5032762;28;20552;-62
2023/06/01 01:02:37;;;;;;;4.95;2.85;;;15.00;94.30;;;;;;5035882;28;20726;-60
2023/06/01 01:05:09;;;;;;;8.30;2.90;;;15.00;94.50;;;;;;5036472;28;20202;-60
2023/06/01 01:07:43;;;;;;;3.83;2.80;;;15.00;94.80;;;;;;5037031;28;20293;-59
2023/06/01 01:10:20;;;;;;;8.40;2.80;;;15.00;95.00;;;;;;5036799;28;20201;-61
2023/06/01 01:12:54;;;;;;;3.53;2.50;;;14.90;95.20;;;;;;5036929;28;20245;-60
2023/06/01 01:15:26;;;;;;;4.50;3.13;;;14.90;95.70;;;;;;5036567;28;20221;-60
2023/06/01 01:18:01;;;;;;;5.37;2.50;;;14.90;95.70;;;;;;5035564;28;20577;-61
2023/06/01 01:20:33;;;;;;;4.57;2.77;;;14.80;95.80;;;;;;5036365;28;20240;-61
2023/06/01 01:23:11;;;;;;;5.27;3.10;;;14.80;95.80;;;;;;5036287;28;20233;-60
2023/06/01 01:26:13;;;;;;;5.53;3.37;;;14.80;95.90;;;;;;5035736;28;20621;-61
2023/06/01 01:28:49;;;;;;;5.13;3.30;;;14.80;96.30;;;;;;5037344;28;20649;-60
2023/06/01 01:31:19;;;;;;;7.10;3.30;;;14.80;96.00;;;;;;5035115;28;20263;-62
2023/06/01 01:33:48;;;;;;;5.10;3.10;;;14.70;96.10;;;;;;5035438;28;20264;-61
2023/06/01 01:36:16;;;;;;;4.47;2.80;;;14.60;96.20;;;;;;5034564;28;20216;-61
2023/06/01 01:38:43;;;;;;;3.73;2.77;;;14.50;96.40;;;;;;5035372;28;20293;-60
2023/06/01 01:41:10;;;;;;;4.70;3.07;;;14.40;96.80;;;;;;5034476;28;20343;-60
2023/06/01 01:43:38;;;;;;;6.20;3.07;;;14.30;97.20;;;;;;5035141;28;20210;-60
2023/06/01 01:46:14;;;;;;;4.93;2.77;;;14.10;97.60;;;;;;5034380;28;20202;-60
2023/06/01 01:48:50;;;;;;;5.00;3.00;;;14.00;97.90;;;;;;5034523;28;20676;-62
2023/06/01 01:51:20;;;;;;;4.57;2.70;;;13.90;98.30;;;;;;5034589;28;20634;-61
2023/06/01 01:53:51;;;;;;;4.83;2.90;;;13.80;98.80;;;;;;5034424;28;20210;-60
2023/06/01 01:56:19;;;;;;;5.57;2.90;;;13.70;99.30;;;;;;5035480;28;20217;-61
2023/06/01 01:58:48;;;;;;;5.30;2.73;;;13.60;99.50;;;;;;5037509;28;20210;-60
2023/06/01 02:01:18;;;;;;;4.17;2.90;;;13.60;99.70;;;;;;5037288;28;20250;-61
2023/06/01 02:03:44;;;;;;;3.83;2.73;;;13.60;99.90;;;;;;5037592;28;20210;-61
2023/06/01 02:06:11;;;;;;;4.63;2.80;;;13.60;99.90;;;;;;5037167;28;20210;-60
2023/06/01 02:08:38;;;;;;;3.70;2.90;;;13.60;99.90;;;;;;5037176;28;20206;-60
2023/06/01 02:11:05;;;;;;;3.93;3.10;;;13.70;99.90;;;;;;5037284;28;20216;-61
2023/06/01 02:13:32;;;;;;;4.03;2.60;;;13.70;99.90;;;;;;5036289;28;20221;-61
2023/06/01 02:15:59;;;;;;;5.00;3.10;;;13.70;99.90;;;;;;5036133;28;20245;-61
2023/06/01 02:18:29;;;;;;;4.23;3.00;;;13.70;99.90;;;;;;5036731;28;20237;-61
2023/06/01 02:20:56;;;;;;;5.20;3.00;;;13.70;99.90;;;;;;5036914;28;20668;-60
2023/06/01 02:23:22;;;;;;;5.57;2.70;;;13.70;99.90;;;;;;5036857;28;20210;-60
2023/06/01 02:25:50;;;;;;;4.33;2.77;;;13.80;99.90;;;;;;5036304;28;20285;-62
2023/06/01 02:28:17;;;;;;;5.93;3.00;;;13.80;99.90;;;;;;5037104;28;20209;-60
2023/06/01 02:30:43;;;;;;;6.23;3.00;;;13.80;99.90;;;;;;5036451;28;20213;-60
2023/06/01 02:33:10;;;;;;;4.77;3.17;;;13.80;99.90;;;;;;5036028;28;20226;-59
2023/06/01 02:35:39;;;;;;;4.37;2.90;;;13.80;99.90;;;;;;5035551;28;20213;-59
2023/06/01 02:38:06;;;;;;;4.97;2.90;;;13.80;99.90;;;;;;5036320;28;20288;-60
2023/06/01 02:40:33;;;;;;;4.43;3.20;;;13.70;99.90;;;;;;5035880;28;20265;-61
2023/06/01 02:42:59;;;;;;;6.30;3.20;;;13.70;99.90;;;;;;5035530;28;20234;-59
2023/06/01 02:45:26;;;;;;;5.03;3.43;;;13.60;99.90;;;;;;5035621;28;20203;-60
2023/06/01 02:47:53;;;;;;;4.77;3.27;;;13.60;99.90;;;;;;5035219;28;20202;-59
2023/06/01 02:50:20;;;;;;;7.03;3.17;;;13.60;99.90;;;;;;5034983;28;20202;-60
2023/06/01 02:52:48;;;;;;;4.37;2.97;;;13.60;99.90;;;;;;5035232;28;20400;-60
2023/06/01 02:55:15;;;;;;;5.57;3.00;;;13.50;99.90;;;;;;5035198;28;20621;-60
2023/06/01 02:57:41;;;;;;;3.80;3.07;;;13.40;99.90;;;;;;5035156;28;20313;-62
2023/06/01 03:00:15;;;;;;;7.50;3.23;;;13.40;99.90;;;;;;5035346;28;20206;-59
2023/06/01 03:02:42;;;;;;;4.87;3.07;;;13.40;99.90;;;;;;5035422;28;20265;-60
2023/06/01 03:05:11;;;;;;;4.37;3.23;;;13.30;99.90;;;;;;5035297;28;20210;-60
2023/06/01 03:07:38;;;;;;;6.93;3.37;;;13.30;99.90;;;;;;5034157;28;20214;-59
2023/06/01 03:10:07;;;;;;;5.50;3.53;;;13.30;99.90;;;;;;5034770;28;20213;-60
2023/06/01 03:12:34;;;;;;;7.40;3.87;;;13.30;99.90;;;;;;5034107;28;20245;-59
2023/06/01 03:15:01;;;;;;;5.53;3.30;;;13.20;99.90;;;;;;5034636;28;20206;-61
2023/06/01 03:17:28;;;;;;;4.27;3.07;;;13.20;99.90;;;;;;5033320;28;20720;-60
2023/06/01 03:19:55;;;;;;;5.10;3.13;;;13.20;99.90;;;;;;5034084;28;20252;-60
2023/06/01 03:22:22;;;;;;;4.27;3.03;;;13.20;99.90;;;;;;5034197;28;20240;-60
2023/06/01 03:24:49;;;;;;;8.70;2.93;;;13.20;99.90;;;;;;5034330;28;20210;-60
2023/06/01 03:27:19;;;;;;;3.47;2.73;;;13.20;99.90;;;;;;5035182;28;20309;-60
2023/06/01 03:29:46;;;;;;;8.30;3.90;;;13.20;99.90;;;;;;5035108;28;20652;-61
2023/06/01 03:32:14;;;;;;;7.57;3.47;;;13.20;99.90;;;;;;5034959;28;20276;-61
2023/06/01 03:34:41;;;;;;;5.63;3.10;;;13.10;99.90;;;;;;5034644;28;20217;-61
2023/06/01 03:37:08;;;;;;;5.20;3.63;;;13.10;99.90;;;;;;5034445;28;20647;-60
2023/06/01 03:39:36;;;;;;;5.80;4.27;;;13.10;99.90;;;;;;5034042;28;20593;-59
2023/06/01 03:42:03;;;;;;;5.60;3.53;;;13.10;99.90;;;;;;5033988;28;20340;-59
2023/06/01 03:44:31;;;;;;;5.50;3.67;;;13.10;99.90;;;;;;5034515;28;20270;-60
2023/06/01 03:46:57;;;;;;;7.77;3.63;;;13.00;99.90;;;;;;5033600;28;20585;-62
2023/06/01 03:49:24;;;;;;;5.60;3.77;;;13.00;99.90;;;;;;5034361;28;20210;-59
2023/06/01 03:51:51;;;;;;;6.20;3.80;;;13.10;99.90;;;;;;5034678;28;20226;-61
2023/06/01 03:54:18;;;;;;;7.13;3.83;;;13.10;99.90;;;;;;5034741;28;20205;-60
2023/06/01 03:56:45;;;;;;;7.33;3.40;;;13.10;99.90;;;;;;5033915;28;20202;-59
2023/06/01 03:59:12;;;;;;;4.53;3.30;;;13.10;99.90;;;;;;5034449;28;20226;-60
2023/06/01 04:01:42;;;;;;;5.93;3.10;;;13.10;99.90;;;;;;5033829;28;20280;-61
2023/06/01 04:04:09;;;;;;;5.17;3.13;;;13.10;99.90;;;;;;5034266;28;20668;-59
2023/06/01 04:06:36;;;;;;;4.87;3.13;;;13.00;99.90;;;;;;5032988;28;20211;-62
2023/06/01 04:09:06;;;;;;;3.77;3.13;;;13.00;99.90;;;;;;5034287;28;20293;-62
2023/06/01 04:11:34;;;;;;;6.40;3.30;;;13.00;99.90;;;;;;5033912;28;20234;-60
2023/06/01 04:14:01;;;;;;;8.83;4.27;;;13.00;99.90;;;;;;5034350;28;20218;-61
2023/06/01 04:16:28;;;;;;;3.47;2.90;;;13.10;99.90;;;;;;5034169;28;20222;-60
2023/06/01 04:18:56;;;;;;;4.60;2.87;;;13.30;99.90;;;;;;5034446;28;20226;-61
2023/06/01 04:21:23;;;;;;;3.67;2.90;;;13.40;99.90;;;;;;5033950;28;20230;-61
2023/06/01 04:23:51;;;;;;;7.47;3.03;;;13.50;99.90;;;;;;5034196;28;20298;-61
2023/06/01 04:26:18;;;;;;;4.57;2.90;;;13.50;99.90;;;;;;5034138;28;20202;-60
2023/06/01 04:28:45;;;;;;;7.03;3.10;;;13.50;99.90;;;;;;5034324;28;20252;-60
2023/06/01 04:31:16;;;;;;;6.60;2.90;;;13.60;99.90;;;;;;5033917;28;20222;-60
2023/06/01 04:33:44;;;;;;;5.57;2.90;;;13.70;99.90;;;;;;5034776;28;20206;-61
2023/06/01 04:36:12;;;;;;;5.07;3.07;;;13.70;99.90;;;;;;5035581;28;20245;-61
2023/06/01 04:38:41;;;;;;;6.10;3.30;;;13.80;99.90;;;;;;5039114;28;20647;-61
2023/06/01 04:41:09;;;;;;;5.97;3.10;;;14.00;99.90;;;;;;5039259;28;20276;-61
2023/06/01 04:43:38;;;;;;;4.63;3.40;;;14.10;99.90;;;;;;5039843;28;20203;-61
2023/06/01 04:46:05;;;;;;;6.63;3.20;;;14.30;99.90;;;;;;5037968;28;20207;-61
2023/06/01 04:48:32;;;;;;;7.50;3.40;;;14.40;99.90;;;;;;5037991;28;20252;-61
2023/06/01 04:50:59;;;;;;;4.37;3.10;;;14.60;99.90;;;;;;5035574;28;20210;-62
2023/06/01 04:53:27;;;;;;;5.30;3.23;;;14.70;99.90;;;;;;5034609;28;20264;-61
2023/06/01 04:55:56;;;;;;;6.83;2.80;;;14.90;99.90;;;;;;5034694;28;20301;-62
2023/06/01 04:58:22;;;;;;;4.87;2.73;;;15.10;99.90;;;;;;5034423;28;20222;-63
2023/06/01 05:00:49;;;;;;;6.03;3.10;;;15.40;99.90;;;;;;5034358;28;20206;-61
2023/06/01 05:03:16;;;;;;;4.23;2.83;;;15.90;99.90;;;;;;5034965;28;20805;-62
2023/06/01 05:05:43;;;;;;;6.05;3.28;;;16.30;99.50;;;;;;5034365;28;20210;-62
2023/06/01 05:08:10;;;;;;;6.97;3.00;;;16.70;98.70;;;;;;5034241;28;20587;-63
2023/06/01 05:10:39;;;;;;;9.05;3.08;;;17.30;98.20;;;;;;5034385;28;20695;-62
2023/06/01 05:13:06;;;;;;;5.32;3.03;;;18.50;96.60;;;;;;5034480;28;20253;-61
2023/06/01 05:15:32;;;;;;;9.23;5.47;;;20.40;94.80;;;;;;5034395;28;20648;-62
2023/06/01 05:17:59;;;;;;;8.85;2.90;;;22.40;91.10;;;;;;5034474;28;20730;-62
2023/06/01 05:20:26;;;;;;;5.75;3.20;;;24.20;82.60;;;;;;5034313;28;20209;-62
2023/06/01 05:22:53;;;;;;;4.97;3.20;;;25.10;78.20;;;;;;5034672;28;20317;-61
2023/06/01 05:25:19;;;;;;;8.20;3.85;;;26.00;72.50;;;;;;5034414;28;20691;-63
2023/06/01 05:27:48;;;;;;;5.72;3.35;;;26.40;72.30;;;;;;5034198;28;20202;-62
2023/06/01 05:30:14;;;;;;;6.95;3.38;;;26.40;70.20;;;;;;5034286;28;20210;-61
2023/06/01 05:32:41;;;;;;;6.15;3.85;;;26.30;71.10;;;;;;5034476;28;20276;-61
2023/06/01 05:35:09;;;;;;;9.20;3.85;;;25.80;70.50;;;;;;5034213;28;20214;-62
2023/06/01 05:37:36;;;;;;;7.55;3.42;;;25.60;70.80;;;;;;5033789;28;20256;-61
2023/06/01 05:40:06;;;;;;;5.30;3.45;;;25.40;71.90;;;;;;5034133;28;20210;-62
2023/06/01 05:42:33;;;;;;;10.13;3.70;;;26.30;71.40;;;;;;5033788;28;20317;-62
2023/06/01 05:45:01;;;;;;;6.38;3.92;;;28.30;67.60;;;;;;5033957;28;20214;-61
2023/06/01 05:47:28;;;;;;;5.57;3.33;;;30.10;62.30;;;;;;5032793;28;20676;-61
2023/06/01 05:49:55;;;;;;;6.65;4.10;;;31.30;58.20;;;;;;5033940;28;20647;-62
2023/06/01 05:52:22;;;;;;;4.65;3.45;;;32.20;56.70;;;;;;5033401;28;20720;-61
2023/06/01 05:54:50;;;;;;;5.32;3.60;;;33.30;54.40;;;;;;5033609;28;20206;-61
2023/06/01 05:57:17;;;;;;;4.90;3.33;;;33.80;52.00;;;;;;5033234;28;20200;-60
2023/06/01 05:59:45;;;;;;;7.22;3.85;;;32.10;53.70;;;;;;5033803;28;20740;-61
2023/06/01 06:02:14;;;;;;;7.95;3.80;;;31.10;55.50;;;;;;5033442;28;20255;-61
2023/06/01 06:04:40;;;;;;;7.32;4.10;;;29.50;57.80;;;;;;5033414;28;20272;-62
2023/06/01 06:07:07;;;;;;;7.55;5.05;;;28.70;59.50;;;;;;5033357;28;20210;-62
2023/06/01 06:09:34;;;;;;;6.45;3.40;;;30.00;58.10;;;;;;5033239;28;20218;-62
2023/06/01 06:12:01;;;;;;;5.50;3.13;;;31.90;55.20;;;;;;5033129;28;20320;-61
2023/06/01 06:14:28;;;;;;;7.22;3.47;;;32.80;52.40;;;;;;5033204;28;20210;-60
2023/06/01 06:16:55;;;;;;;6.38;3.58;;;31.90;52.90;;;;;;5032817;28;20213;-61
2023/06/01 06:19:23;;;;;;;7.30;3.10;;;32.30;53.40;;;;;;5033036;28;20232;-61
2023/06/01 06:21:50;;;;;;;8.20;3.28;;;32.90;51.50;;;;;;5033227;28;20318;-60
2023/06/01 06:24:17;;;;;;;6.90;3.35;;;32.40;51.40;;;;;;5033043;28;20205;-61
2023/06/01 06:26:44;;;;;;;7.60;3.85;;;32.00;51.90;;;;;;5032753;28;20676;-63
2023/06/01 06:29:11;;;;;;;4.63;2.95;;;32.70;51.90;;;;;;5033320;28;20228;-63
2023/06/01 06:31:38;;;;;;;8.45;3.40;;;33.80;50.50;;;;;;5033522;28;20226;-61
2023/06/01 06:34:05;;;;;;;7.28;3.40;;;35.20;49.00;;;;;;5033437;28;20592;-63
2023/06/01 06:36:33;;;;;;;6.63;3.20;;;36.30;47.40;;;;;;5032579;28;20565;-60
2023/06/01 06:38:59;;;;;;;5.32;3.10;;;37.30;45.50;;;;;;5032504;28;20226;-61
2023/06/01 06:41:26;;;;;;;8.63;3.00;;;38.40;44.10;;;;;;5032590;28;20669;-62
2023/06/01 06:43:53;;;;;;;5.30;3.05;;;39.10;42.00;;;;;;5032552;28;20210;-61
2023/06/01 06:46:20;;;;;;;5.82;3.20;;;39.30;42.00;;;;;;5032299;28;20213;-61
2023/06/01 06:48:46;;;;;;;5.93;3.13;;;39.90;41.10;;;;;;5032571;28;20212;-62
2023/06/01 06:51:13;;;;;;;5.25;3.03;;;40.60;39.50;;;;;;5032408;28;20226;-61
2023/06/01 06:53:41;;;;;;;7.57;3.10;;;38.80;42.00;;;;;;5032482;28;20214;-62
2023/06/01 06:56:08;;;;;;;7.32;2.58;;;38.30;41.80;;;;;;5032197;28;20560;-60
2023/06/01 06:58:35;;;;;;;5.50;2.70;;;38.20;42.70;;;;;;5031488;28;20229;-60
2023/06/01 07:01:04;;;;;;;9.48;3.25;;;38.70;42.40;;;;;;5032344;28;20201;-60
2023/06/01 07:03:32;;;;;;;4.47;2.72;;;38.60;42.20;;;;;;5032157;28;20692;-61
2023/06/01 07:05:59;;;;;;;7.78;2.80;;;38.30;42.80;;;;;;5031710;28;20209;-62
2023/06/01 07:08:26;;;;;;;23.70;19.48;;;37.90;43.20;;;;;;5032036;28;20206;-60
2023/06/01 07:10:56;;;;;;;37.22;32.55;;;38.90;41.90;;;;;;5032029;28;20206;-61
2023/06/01 07:13:23;;;;;;;30.33;18.25;;;38.20;42.70;;;;;;5032747;28;20205;-62
2023/06/01 07:15:50;;;;;;;6.03;3.78;;;38.30;42.30;;;;;;5032154;28;20315;-61
2023/06/01 07:18:16;;;;;;;8.45;4.95;;;37.80;42.00;;;;;;5031921;28;20229;-61
2023/06/01 07:20:43;;;;;;;8.18;4.60;;;38.40;41.50;;;;;;5031781;28;20613;-61
2023/06/01 07:23:12;;;;;;;7.90;2.80;;;39.10;39.40;;;;;;5032026;28;20224;-60
2023/06/01 07:25:38;;;;;;;11.25;6.13;;;38.80;39.70;;;;;;5032026;28;20206;-62
2023/06/01 07:28:08;;;;;;;8.15;3.60;;;39.60;38.40;;;;;;5031967;28;20209;-62
2023/06/01 07:30:35;;;;;;;6.63;2.78;;;40.60;37.90;;;;;;5031859;28;20208;-61
2023/06/01 07:33:03;;;;;;;9.32;4.57;;;39.50;38.40;;;;;;5031963;28;20706;-62
2023/06/01 07:35:29;;;;;;;5.50;2.60;;;39.50;38.60;;;;;;5032023;28;20211;-61
2023/06/01 07:37:57;;;;;;;6.65;4.40;;;39.60;38.60;;;;;;5031679;28;20228;-61
2023/06/01 07:40:24;;;;;;;5.15;2.50;;;39.00;39.50;;;;;;5031739;28;20226;-60
2023/06/01 07:42:51;;;;;;;6.13;2.70;;;39.20;38.80;;;;;;5031831;28;20287;-60
2023/06/01 07:45:19;;;;;;;6.38;3.10;;;39.70;39.00;;;;;;5031871;28;20206;-60
2023/06/01 07:47:46;;;;;;;4.10;2.55;;;41.00;38.10;;;;;;5031119;28;20237;-60
2023/06/01 07:50:13;;;;;;;10.93;2.95;;;41.10;37.50;;;;;;5031622;28;20206;-61
2023/06/01 07:52:40;;;;;;;7.07;2.85;;;39.80;38.50;;;;;;5031413;28;20261;-61
2023/06/01 07:55:09;;;;;;;9.52;2.75;;;40.30;38.30;;;;;;5031534;28;20209;-61
2023/06/01 07:57:36;;;;;;;4.68;2.60;;;41.00;37.40;;;;;;5031334;28;20431;-61
2023/06/01 08:00:07;;;;;;;3.33;2.47;;;41.60;37.10;;;;;;5031485;28;20222;-61
2023/06/01 08:02:35;;;;;;;5.07;2.47;;;42.50;36.20;;;;;;5031968;28;20233;-61
2023/06/01 08:05:02;;;;;;;3.70;2.63;;;43.40;35.20;;;;;;5031825;28;20296;-61
2023/06/01 08:07:30;;;;;;;5.70;2.65;;;42.00;36.40;;;;;;5031061;28;20293;-61
2023/06/01 08:09:58;;;;;;;3.55;2.53;;;41.40;36.70;;;;;;5032222;28;20201;-61
2023/06/01 08:12:26;;;;;;;5.50;2.60;;;41.70;36.50;;;;;;5035129;28;20256;-61
2023/06/01 08:14:53;;;;;;;4.72;2.92;;;41.90;36.10;;;;;;5035181;28;20205;-60
2023/06/01 08:17:20;;;;;;;4.90;2.65;;;40.90;37.20;;;;;;5035120;28;20592;-61
2023/06/01 08:19:49;;;;;;;4.72;2.50;;;40.90;36.90;;;;;;5035248;28;20307;-61
2023/06/01 08:22:17;;;;;;;5.60;2.33;;;40.30;37.60;;;;;;5035193;28;20626;-61
2023/06/01 08:24:45;;;;;;;6.78;2.80;;;40.50;37.60;;;;;;5034929;28;20213;-61
2023/06/01 08:27:23;;;;;;;6.18;2.75;;;41.00;37.10;;;;;;5034657;28;20722;-61
2023/06/01 08:29:51;;;;;;;6.40;2.78;;;40.80;37.90;;;;;;5037708;28;20289;-63
2023/06/01 08:32:18;;;;;;;6.53;2.60;;;40.90;37.80;;;;;;5054420;28;20220;-60
2023/06/01 08:34:45;;;;;;;6.93;3.17;;;41.40;36.30;;;;;;5054695;28;20201;-61
2023/06/01 08:37:13;;;;;;;4.32;2.67;;;40.90;36.90;;;;;;5054240;28;20308;-63
2023/06/01 08:39:41;;;;;;;7.00;2.72;;;40.00;37.50;;;;;;5054241;28;20331;-61
2023/06/01 08:42:09;;;;;;;6.15;2.70;;;40.00;37.60;;;;;;5054217;28;20750;-59
2023/06/01 08:44:39;;;;;;;7.15;3.53;;;39.80;37.50;;;;;;5054228;28;20212;-60
2023/06/01 08:47:07;;;;;;;7.32;3.22;;;39.20;38.20;;;;;;5054171;28;20210;-60
2023/06/01 08:49:36;;;;;;;6.07;2.80;;;37.90;39.60;;;;;;5054480;28;20202;-60
2023/06/01 08:52:07;;;;;;;8.55;3.13;;;36.70;40.60;;;;;;5053953;28;20229;-60
2023/06/01 08:54:35;;;;;;;7.45;3.10;;;35.30;42.40;;;;;;5054260;28;20274;-58
2023/06/01 08:57:07;;;;;;;6.75;2.90;;;33.90;43.80;;;;;;5053531;28;20210;-60
2023/06/01 08:59:35;;;;;;;5.22;3.08;;;32.40;45.70;;;;;;5053987;28;20606;-60
2023/06/01 09:02:02;;;;;;;7.95;3.40;;;31.10;46.90;;;;;;5053834;28;20221;-59
2023/06/01 09:04:30;;;;;;;6.05;3.20;;;30.30;49.20;;;;;;5054033;28;20212;-59
2023/06/01 09:06:57;;;;;;;6.38;2.97;;;29.20;50.90;;;;;;5053574;28;20202;-59
2023/06/01 09:09:24;;;;;;;6.30;3.00;;;28.60;51.50;;;;;;5053826;28;20198;-60
2023/06/01 09:12:28;;;;;;;9.77;3.70;;;28.30;52.70;;;;;;5053246;28;20234;-59
2023/06/01 09:15:17;;;;;;;6.07;3.10;;;28.10;52.90;;;;;;5053843;28;20212;-60
2023/06/01 09:17:46;;;;;;;7.28;3.10;;;27.90;52.90;;;;;;5047601;28;20209;-60
2023/06/01 09:20:14;;;;;;;6.47;3.28;;;27.70;53.50;;;;;;5053461;28;20267;-60
2023/06/01 09:22:42;;;;;;;4.75;2.83;;;27.50;53.50;;;;;;5052595;28;20229;-59
2023/06/01 09:25:10;;;;;;;7.22;3.25;;;27.20;53.90;;;;;;5053708;28;20283;-59
2023/06/01 09:27:47;;;;;;;7.03;3.00;;;27.10;54.50;;;;;;5052967;28;20229;-59
2023/06/01 09:30:14;;;;;;;6.20;3.70;;;27.00;54.60;;;;;;5053824;28;20208;-60
2023/06/01 09:32:42;;;;;;;5.72;3.30;;;26.90;54.80;;;;;;5052984;28;20743;-62
2023/06/01 09:35:09;;;;;;;7.05;3.55;;;27.00;55.30;;;;;;5043654;28;20471;-64
2023/06/01 09:37:38;;;;;;;4.72;3.30;;;26.80;55.60;;;;;;5051746;28;20209;-62
2023/06/01 09:40:18;;;;;;;6.60;3.28;;;26.70;56.10;;;;;;5053148;28;20228;-63
2023/06/01 09:42:49;;;;;;;8.02;3.80;;;26.60;56.20;;;;;;5053369;28;20581;-62
2023/06/01 09:45:18;;;;;;;5.80;3.25;;;26.60;56.60;;;;;;5053201;28;20209;-61
2023/06/01 09:47:45;;;;;;;7.72;3.50;;;26.70;56.10;;;;;;5052934;28;20239;-60
2023/06/01 09:50:32;;;;;;;5.50;3.60;;;26.70;55.90;;;;;;5051365;28;20284;-62
2023/06/01 09:52:59;;;;;;;5.03;3.58;;;26.50;56.80;;;;;;5052958;28;20225;-62
2023/06/01 09:55:25;;;;;;;5.78;3.08;;;26.50;57.10;;;;;;5053514;28;20240;-61
2023/06/01 09:57:53;;;;;;;5.15;3.30;;;26.60;56.70;;;;;;5053129;28;20201;-62
2023/06/01 10:00:24;;;;;;;7.80;3.75;;;26.60;56.80;;;;;;5053121;28;20225;-61
2023/06/01 10:02:51;;;;;;;4.80;3.17;;;26.60;56.20;;;;;;5052823;28;20279;-61
2023/06/01 10:05:18;;;;;;;6.38;3.78;;;26.60;56.10;;;;;;5052831;28;20209;-60
2023/06/01 10:07:45;;;;;;;7.75;3.35;;;26.70;57.00;;;;;;5052979;28;20209;-62
2023/06/01 10:10:15;;;;;;;4.97;3.75;;;26.70;56.60;;;;;;5053246;28;20725;-62
2023/06/01 10:12:45;;;;;;;6.13;3.80;;;26.90;56.20;;;;;;5052773;28;20301;-62
2023/06/01 10:15:13;;;;;;;5.38;3.60;;;26.90;56.20;;;;;;5052853;28;20202;-60
2023/06/01 10:17:42;;;;;;;7.65;3.67;;;27.00;55.40;;;;;;5052730;28;20210;-61
2023/06/01 10:20:11;;;;;;;4.13;3.45;;;26.90;55.30;;;;;;5052988;28;20232;-59
2023/06/01 10:22:41;;;;;;;5.55;3.78;;;27.00;55.00;;;;;;5052634;28;20264;-59
2023/06/01 10:25:11;;;;;;;5.57;3.47;;;27.30;54.20;;;;;;5052752;28;20205;-60
2023/06/01 10:27:43;;;;;;;5.65;3.33;;;27.50;54.10;;;;;;5051648;28;20212;-62
2023/06/01 10:30:10;;;;;;;6.25;3.10;;;27.60;53.60;;;;;;5052258;28;20212;-61
2023/06/01 10:32:47;;;;;;;3.80;3.00;;;27.70;52.30;;;;;;5052391;28;20225;-61
2023/06/01 10:35:49;;;;;;;5.22;3.10;;;27.70;52.30;;;;;;5051783;28;20201;-62
2023/06/01 10:38:28;;;;;;;6.55;3.45;;;27.80;51.00;;;;;;5047458;28;20262;-59
2023/06/01 10:41:28;;;;;;;5.00;3.72;;;27.80;51.50;;;;;;5051958;28;20264;-61
2023/06/01 10:43:55;;;;;;;4.97;3.47;;;27.80;51.30;;;;;;5052196;28;20249;-61
2023/06/01 10:46:40;;;;;;;7.25;3.75;;;27.80;51.70;;;;;;5051967;28;20213;-62
2023/06/01 10:49:08;;;;;;;6.45;3.30;;;27.80;51.70;;;;;;5051832;28;20296;-60
2023/06/01 10:51:35;;;;;;;6.40;3.42;;;27.80;52.60;;;;;;5051859;28;20236;-60
2023/06/01 10:54:38;;;;;;;8.07;3.30;;;27.90;53.80;;;;;;5051968;28;20210;-60
2023/06/01 10:57:25;;;;;;;3.95;3.20;;;28.00;54.70;;;;;;5051548;28;20205;-61
2023/06/01 11:00:16;;;;;;;9.80;4.07;;;28.00;52.70;;;;;;5051328;28;20226;-60
2023/06/01 11:02:54;;;;;;;6.25;3.88;;;27.90;52.50;;;;;;5050265;28;20363;-62
2023/06/01 11:05:52;;;;;;;8.00;3.67;;;28.00;52.70;;;;;;5051428;28;20300;-60
2023/06/01 11:08:51;;;;;;;5.28;3.20;;;28.20;52.20;;;;;;5051558;28;20206;-61
2023/06/01 11:11:20;;;;;;;8.93;3.78;;;28.40;51.80;;;;;;5051240;28;20312;-61
2023/06/01 11:14:13;;;;;;;7.35;3.60;;;28.50;50.50;;;;;;5051636;28;20475;-61
2023/06/01 11:16:40;;;;;;;6.80;3.72;;;28.50;51.10;;;;;;5051642;28;20673;-61
2023/06/01 11:19:08;;;;;;;4.88;3.20;;;28.60;51.90;;;;;;5051873;28;20259;-60
2023/06/01 11:21:40;;;;;;;4.93;3.67;;;28.70;52.80;;;;;;5051424;28;20244;-60
2023/06/01 11:24:10;;;;;;;6.13;3.42;;;28.60;52.90;;;;;;5051424;28;20213;-60
2023/06/01 11:26:39;;;;;;;6.05;3.70;;;28.40;52.40;;;;;;5051382;28;20263;-63
2023/06/01 11:29:12;;;;;;;5.55;3.67;;;28.30;52.70;;;;;;5051463;28;20214;-62
2023/06/01 11:31:41;;;;;;;8.20;3.75;;;28.10;52.60;;;;;;5051438;28;20225;-59
2023/06/01 11:34:09;;;;;;;5.82;3.40;;;28.00;52.30;;;;;;5051044;28;20591;-61
2023/06/01 11:36:48;;;;;;;4.60;3.17;;;27.90;53.00;;;;;;5050624;28;20221;-59
2023/06/01 11:39:21;;;;;;;4.68;3.03;;;27.80;53.20;;;;;;5051693;28;20210;-63
2023/06/01 11:41:49;;;;;;;5.53;3.05;;;28.00;53.00;;;;;;5050759;28;20241;-60
2023/06/01 11:44:16;;;;;;;6.22;3.20;;;28.20;51.40;;;;;;5048924;28;20206;-64
2023/06/01 11:46:58;;;;;;;4.13;3.10;;;28.20;52.10;;;;;;5050542;28;20578;-61
2023/06/01 11:49:25;;;;;;;4.55;3.47;;;28.20;51.90;;;;;;5049459;28;20212;-63
2023/06/01 11:51:55;;;;;;;8.65;3.58;;;28.30;54.10;;;;;;5051096;28;20236;-64
2023/06/01 11:54:24;;;;;;;4.45;3.10;;;28.50;54.40;;;;;;5050673;28;20733;-62
2023/06/01 11:56:51;;;;;;;8.02;3.22;;;28.60;54.70;;;;;;5048233;28;20209;-63
2023/06/01 11:59:19;;;;;;;6.22;3.30;;;28.80;53.80;;;;;;5051085;28;20718;-63
2023/06/01 12:01:47;;;;;;;4.93;3.13;;;29.10;53.60;;;;;;5049374;28;20233;-61
2023/06/01 12:04:14;;;;;;;6.30;3.35;;;29.20;52.70;;;;;;5045560;28;20209;-62
2023/06/01 12:06:41;;;;;;;4.75;3.17;;;29.50;53.30;;;;;;5049605;28;20209;-61
2023/06/01 12:09:10;;;;;;;5.07;3.30;;;29.50;52.50;;;;;;5051385;28;20209;-61
2023/06/01 12:11:37;;;;;;;6.60;3.00;;;29.40;52.90;;;;;;5051057;28;20229;-60
2023/06/01 12:14:06;;;;;;;6.82;3.90;;;29.30;53.50;;;;;;5051243;28;20621;-62
2023/06/01 12:16:56;;;;;;;6.25;4.00;;;29.40;53.10;;;;;;5050789;28;20206;-62
2023/06/01 12:19:23;;;;;;;5.95;3.25;;;29.50;53.00;;;;;;5050088;28;20224;-63
2023/06/01 12:21:51;;;;;;;8.75;3.38;;;29.40;52.70;;;;;;5050545;28;20237;-65
2023/06/01 12:24:27;;;;;;;6.53;3.50;;;29.60;52.50;;;;;;5049330;28;20198;-61
2023/06/01 12:26:54;;;;;;;7.72;3.22;;;29.80;52.40;;;;;;5050538;28;20201;-62
2023/06/01 12:29:35;;;;;;;6.43;3.53;;;30.00;52.70;;;;;;5051141;28;20219;-58
2023/06/01 12:32:02;;;;;;;5.03;3.15;;;30.10;52.60;;;;;;5051017;28;20606;-61
2023/06/01 12:34:29;;;;;;;6.45;3.28;;;30.30;52.00;;;;;;5050929;28;20638;-61
2023/06/01 12:36:56;;;;;;;4.47;3.33;;;30.50;51.80;;;;;;5050745;28;20205;-60
2023/06/01 12:39:36;;;;;;;5.75;3.55;;;30.50;51.30;;;;;;5050754;28;20559;-63
2023/06/01 12:42:04;;;;;;;5.95;3.22;;;30.60;51.30;;;;;;5050512;28;20283;-62
2023/06/01 12:44:31;;;;;;;9.88;3.38;;;30.70;51.80;;;;;;5051065;28;20205;-61
2023/06/01 12:46:58;;;;;;;5.70;2.90;;;30.60;50.20;;;;;;5049033;28;20213;-61
2023/06/01 12:49:25;;;;;;;5.47;3.20;;;30.40;50.10;;;;;;5050685;28;20213;-61
2023/06/01 12:51:52;;;;;;;6.80;3.17;;;30.20;50.70;;;;;;5050641;28;20226;-60
2023/06/01 12:54:19;;;;;;;5.00;3.17;;;30.30;50.80;;;;;;5050543;28;20214;-58
2023/06/01 12:56:48;;;;;;;7.95;2.90;;;30.40;51.00;;;;;;5051159;28;20726;-59